Time;durP1;ratioP1;P1;durP2;ratioP2;P2;SDS_P1;SDS_P2;PMS_P1;PMS_P2;Temp;Humidity;BMP_temperature;BMP_pressure;BME280_temperature;BME280_humidity;BME280_pressure;Samples;Min_cycle;Max_cycle;Signal;HPM_P1;HPM_P2
2022/06/19 00:01:30;;;;;;;;;;;;;;;27.44;32.38;99501.12;4511391;31;34124;-84
2022/06/19 00:03:57;;;;;;;;;;;;;;;27.41;32.39;99515.47;4512032;31;32674;-85
2022/06/19 00:06:25;;;;;;;;;;;;;;;27.42;32.25;99517.19;4509553;31;35123;-85
2022/06/19 00:08:52;;;;;;;;;;;;;;;27.34;32.23;99507.88;4490190;31;34867;-88
2022/06/19 00:11:20;;;;;;;;;;;;;;;27.12;32.40;99508.97;4483873;32;35213;-86
2022/06/19 00:13:47;;;;;;;;;;;;;;;27.09;32.54;99506.41;4514887;31;34304;-86
2022/06/19 00:16:15;;;;;;;;;;;;;;;27.18;32.43;99502.47;4513969;31;33696;-86
2022/06/19 00:18:43;;;;;;;;;;;;;;;27.26;32.26;99494.09;4498151;31;33928;-86
2022/06/19 00:21:10;;;;;;;;;;;;;;;27.25;32.29;99498.56;4497837;31;34751;-85
2022/06/19 00:23:37;;;;;;;;;;;;;;;27.25;32.26;99497.69;4512860;31;33183;-86
2022/06/19 00:26:05;;;;;;;;;;;;;;;27.23;32.25;99494.22;4514521;31;33981;-85
2022/06/19 00:28:32;;;;;;;;;;;;;;;27.14;32.40;99499.09;4506503;31;34272;-85
2022/06/19 00:30:59;;;;;;;;;;;;;;;27.03;32.68;99492.53;4499610;31;34202;-86
2022/06/19 00:33:27;;;;;;;;;;;;;;;27.02;32.64;99496.16;4499350;31;33408;-86
2022/06/19 00:35:54;;;;;;;;;;;;;;;26.99;32.93;99493.62;4499273;31;34341;-85
2022/06/19 00:38:21;;;;;;;;;;;;;;;27.02;32.81;99489.03;4505383;31;34476;-86
2022/06/19 00:40:49;;;;;;;;;;;;;;;27.00;32.73;99495.34;4515195;31;35438;-86
2022/06/19 00:43:16;;;;;;;;;;;;;;;26.71;33.35;99488.78;4513607;31;33575;-85
2022/06/19 00:45:50;;;;;;;;;;;;;;;26.89;33.22;99488.75;4514996;31;34342;-85
2022/06/19 00:48:25;;;;;;;;;;;;;;;26.91;33.17;99491.34;4510860;31;33941;-85
2022/06/19 00:50:52;;;;;;;;;;;;;;;26.99;32.99;99486.50;4502042;31;33991;-85
2022/06/19 00:53:22;;;;;;;;;;;;;;;27.08;32.73;99491.34;4492302;31;33101;-85
2022/06/19 00:55:50;;;;;;;;;;;;;;;27.24;32.50;99485.28;4512523;31;34004;-85
2022/06/19 00:58:21;;;;;;;;;;;;;;;27.24;32.47;99482.63;4511367;31;34379;-85
2022/06/19 01:00:50;;;;;;;;;;;;;;;27.25;32.36;99481.72;4514627;31;34389;-85
2022/06/19 01:03:19;;;;;;;;;;;;;;;27.07;32.45;99473.69;4496444;31;34130;-85
2022/06/19 01:05:47;;;;;;;;;;;;;;;27.10;32.52;99478.00;4499886;31;34145;-85
2022/06/19 01:08:14;;;;;;;;;;;;;;;26.98;32.78;99476.81;4510816;31;34130;-85
2022/06/19 01:10:43;;;;;;;;;;;;;;;26.92;32.83;99472.63;4497542;31;34035;-85
2022/06/19 01:13:10;;;;;;;;;;;;;;;26.96;32.79;99472.50;4498353;31;34094;-85
2022/06/19 01:15:38;;;;;;;;;;;;;;;26.95;33.00;99468.97;4498356;31;34278;-85
2022/06/19 01:18:06;;;;;;;;;;;;;;;26.92;33.16;99466.47;4483962;31;34104;-84
2022/06/19 01:20:34;;;;;;;;;;;;;;;26.94;33.12;99459.28;4497890;31;34078;-86
2022/06/19 01:23:17;;;;;;;;;;;;;;;26.72;33.52;99467.44;4499701;31;34280;-85
2022/06/19 01:25:44;;;;;;;;;;;;;;;26.74;33.64;99465.56;4513424;31;34992;-86
2022/06/19 01:31:03;;;;;;;;;;;;;;;26.68;33.49;99456.09;4481910;31;34810;-84
2022/06/19 01:33:40;;;;;;;;;;;;;;;26.61;33.86;99461.78;4501713;31;34283;-86
2022/06/19 01:36:10;;;;;;;;;;;;;;;26.66;33.60;99459.75;4501413;31;34975;-86
2022/06/19 01:38:37;;;;;;;;;;;;;;;26.63;33.84;99457.25;4497410;31;35285;-85
2022/06/19 01:41:06;;;;;;;;;;;;;;;26.59;34.05;99461.84;4498914;31;34921;-85
2022/06/19 01:43:34;;;;;;;;;;;;;;;26.63;33.85;99457.25;4496453;31;34082;-86
2022/06/19 01:46:02;;;;;;;;;;;;;;;26.53;33.99;99459.50;4497498;31;33791;-85
2022/06/19 01:48:29;;;;;;;;;;;;;;;26.47;34.10;99459.78;4472438;31;35366;-85
2022/06/19 01:50:57;;;;;;;;;;;;;;;26.43;34.15;99455.50;4513354;31;34071;-85
2022/06/19 01:53:32;;;;;;;;;;;;;;;26.41;34.11;99457.41;4490087;31;33601;-84
2022/06/19 01:55:59;;;;;;;;;;;;;;;26.61;33.87;99456.47;4514520;31;34213;-85
2022/06/19 01:58:27;;;;;;;;;;;;;;;26.44;33.97;99451.91;4507622;31;34000;-85
2022/06/19 02:00:54;;;;;;;;;;;;;;;26.48;33.98;99450.00;4497250;31;33824;-85
2022/06/19 02:03:34;;;;;;;;;;;;;;;26.46;34.08;99454.56;4506324;31;33495;-86
2022/06/19 02:06:02;;;;;;;;;;;;;;;26.30;34.14;99444.63;4510237;31;34848;-84
2022/06/19 02:08:30;;;;;;;;;;;;;;;26.33;34.17;99446.25;4494207;31;34429;-85
2022/06/19 02:10:57;;;;;;;;;;;;;;;26.32;34.14;99444.53;4481791;31;34808;-85
2022/06/19 02:13:25;;;;;;;;;;;;;;;26.46;33.71;99439.47;4497370;31;33327;-83
2022/06/19 02:15:53;;;;;;;;;;;;;;;26.48;33.71;99436.72;4514033;31;34825;-84
2022/06/19 02:18:22;;;;;;;;;;;;;;;26.46;33.92;99428.81;4513320;31;33993;-85
2022/06/19 02:20:50;;;;;;;;;;;;;;;26.38;34.11;99436.28;4512667;31;35012;-84
2022/06/19 02:23:21;;;;;;;;;;;;;;;26.32;34.00;99426.78;4494939;31;33608;-84
2022/06/19 02:25:48;;;;;;;;;;;;;;;26.30;34.05;99422.50;4489733;31;34874;-85
2022/06/19 02:28:16;;;;;;;;;;;;;;;26.16;34.14;99431.09;4482792;32;34476;-84
2022/06/19 02:30:44;;;;;;;;;;;;;;;26.18;34.26;99435.41;4483122;31;34378;-85
2022/06/19 02:33:13;;;;;;;;;;;;;;;26.02;34.86;99434.38;4492184;31;34220;-85
2022/06/19 02:35:40;;;;;;;;;;;;;;;26.18;34.55;99439.88;4513614;31;34134;-84
2022/06/19 02:38:07;;;;;;;;;;;;;;;26.20;34.36;99441.50;4513595;31;35263;-84
2022/06/19 02:40:55;;;;;;;;;;;;;;;26.25;34.30;99437.78;4514017;31;35097;-84
2022/06/19 02:43:28;;;;;;;;;;;;;;;26.16;34.59;99436.41;4497301;31;33409;-84
2022/06/19 02:45:55;;;;;;;;;;;;;;;26.23;34.29;99437.84;4512415;31;34384;-84
2022/06/19 02:48:24;;;;;;;;;;;;;;;26.17;34.43;99440.78;4504874;31;34386;-85
2022/06/19 02:50:51;;;;;;;;;;;;;;;26.15;34.62;99432.03;4506540;31;34369;-84
2022/06/19 02:53:19;;;;;;;;;;;;;;;26.23;34.52;99437.00;4505143;31;33608;-84
2022/06/19 02:55:46;;;;;;;;;;;;;;;26.07;34.86;99437.72;4508795;31;34047;-84
2022/06/19 02:58:13;;;;;;;;;;;;;;;26.22;34.52;99429.97;4516011;31;34008;-84
2022/06/19 03:00:41;;;;;;;;;;;;;;;26.22;34.62;99422.00;4514626;31;34178;-84
2022/06/19 03:03:12;;;;;;;;;;;;;;;26.17;34.66;99425.69;4510827;31;33120;-84
2022/06/19 03:05:39;;;;;;;;;;;;;;;26.24;34.68;99425.44;4498658;31;33899;-83
2022/06/19 03:08:09;;;;;;;;;;;;;;;26.30;34.48;99423.34;4500191;31;34558;-85
2022/06/19 03:10:36;;;;;;;;;;;;;;;26.19;34.48;99420.34;4503118;31;34086;-84
2022/06/19 03:13:03;;;;;;;;;;;;;;;26.32;34.25;99423.25;4503874;31;34121;-84
2022/06/19 03:15:31;;;;;;;;;;;;;;;26.27;34.48;99418.16;4500112;31;34076;-85
2022/06/19 03:17:58;;;;;;;;;;;;;;;26.35;34.41;99421.31;4499944;31;35267;-85
2022/06/19 03:20:26;;;;;;;;;;;;;;;26.33;34.49;99417.00;4513154;31;34274;-84
2022/06/19 03:22:54;;;;;;;;;;;;;;;26.42;34.40;99416.56;4503240;31;33817;-85
2022/06/19 03:25:22;;;;;;;;;;;;;;;26.48;34.15;99416.31;4512563;31;34014;-85
2022/06/19 03:27:49;;;;;;;;;;;;;;;26.36;34.50;99412.41;4506254;31;33982;-84
2022/06/19 03:30:17;;;;;;;;;;;;;;;26.45;34.27;99405.81;4500825;31;34259;-85
2022/06/19 03:32:44;;;;;;;;;;;;;;;26.60;34.09;99407.75;4499529;31;33373;-84
2022/06/19 03:35:12;;;;;;;;;;;;;;;26.60;34.01;99405.09;4516047;31;34239;-84
2022/06/19 03:37:39;;;;;;;;;;;;;;;26.64;33.96;99405.81;4515704;31;35314;-85
2022/06/19 03:40:07;;;;;;;;;;;;;;;26.71;34.00;99409.88;4515691;31;33832;-84
2022/06/19 03:42:34;;;;;;;;;;;;;;;26.68;34.15;99410.88;4513207;31;34591;-83
2022/06/19 03:45:02;;;;;;;;;;;;;;;26.77;34.13;99406.91;4493878;31;34998;-84
2022/06/19 03:47:30;;;;;;;;;;;;;;;26.79;34.23;99410.34;4516027;31;34412;-84
2022/06/19 03:49:57;;;;;;;;;;;;;;;27.13;33.96;99406.03;4508248;31;33843;-85
2022/06/19 03:52:25;;;;;;;;;;;;;;;27.55;33.27;99404.72;4507055;31;33332;-86
2022/06/19 03:54:52;;;;;;;;;;;;;;;27.98;32.80;99411.28;4500261;31;35104;-84
2022/06/19 03:57:19;;;;;;;;;;;;;;;28.37;32.13;99404.69;4499254;31;35384;-84
2022/06/19 03:59:47;;;;;;;;;;;;;;;28.62;31.58;99421.03;4500344;31;35051;-84
2022/06/19 04:02:14;;;;;;;;;;;;;;;28.92;31.31;99406.84;4499545;31;34191;-84
2022/06/19 04:04:42;;;;;;;;;;;;;;;29.23;31.01;99407.72;4512937;31;33882;-84
2022/06/19 04:07:10;;;;;;;;;;;;;;;29.56;30.72;99403.00;4515772;31;34261;-88
2022/06/19 04:09:37;;;;;;;;;;;;;;;29.84;30.15;99400.44;4513405;31;34060;-89
2022/06/19 04:12:05;;;;;;;;;;;;;;;30.00;30.10;99401.19;4515303;31;33176;-90
2022/06/19 04:14:32;;;;;;;;;;;;;;;30.22;29.95;99396.22;4505914;31;35079;-84
2022/06/19 04:17:01;;;;;;;;;;;;;;;30.44;29.67;99398.34;4510361;31;34568;-84
2022/06/19 04:19:29;;;;;;;;;;;;;;;30.60;29.56;99397.34;4503846;31;34580;-84
2022/06/19 04:21:56;;;;;;;;;;;;;;;30.86;29.37;99391.13;4484045;32;34177;-84
2022/06/19 04:24:23;;;;;;;;;;;;;;;31.08;29.09;99395.06;4496753;31;34353;-84
2022/06/19 04:26:50;;;;;;;;;;;;;;;31.22;28.92;99389.63;4499674;31;35230;-84
2022/06/19 04:29:18;;;;;;;;;;;;;;;31.48;28.76;99388.69;4500495;31;34221;-84
2022/06/19 04:31:45;;;;;;;;;;;;;;;31.72;28.72;99387.91;4506764;31;33013;-84
2022/06/19 04:34:13;;;;;;;;;;;;;;;31.93;28.58;99383.72;4514810;31;33988;-83
2022/06/19 04:36:40;;;;;;;;;;;;;;;32.06;28.68;99388.22;4515373;31;33817;-85
2022/06/19 04:39:07;;;;;;;;;;;;;;;32.18;28.71;99387.31;4486886;31;34097;-85
2022/06/19 04:41:36;;;;;;;;;;;;;;;32.33;28.75;99396.91;4499946;31;33456;-86
2022/06/19 04:44:04;;;;;;;;;;;;;;;32.37;28.95;99395.72;4499260;31;34884;-86
2022/06/19 04:46:32;;;;;;;;;;;;;;;32.55;28.90;99398.06;4497772;31;34182;-86
2022/06/19 04:48:59;;;;;;;;;;;;;;;32.69;28.75;99401.41;4500549;31;33702;-84
2022/06/19 04:51:27;;;;;;;;;;;;;;;32.77;28.64;99403.53;4511307;31;34124;-83
2022/06/19 04:53:54;;;;;;;;;;;;;;;32.43;29.33;99405.19;4501399;31;34857;-84
2022/06/19 04:56:22;;;;;;;;;;;;;;;32.48;29.29;99407.53;4509779;31;34987;-84
2022/06/19 04:58:49;;;;;;;;;;;;;;;32.21;29.39;99403.19;4496229;31;34155;-84
2022/06/19 05:01:17;;;;;;;;;;;;;;;33.03;28.41;99398.87;4499071;31;33424;-84
2022/06/19 05:03:44;;;;;;;;;;;;;;;32.98;28.14;99403.75;4506573;31;34318;-87
2022/06/19 05:06:11;;;;;;;;;;;;;;;33.05;27.95;99404.16;4498799;31;34327;-84
2022/06/19 05:08:39;;;;;;;;;;;;;;;33.34;27.99;99407.28;4499154;31;34329;-84
2022/06/19 05:11:08;;;;;;;;;;;;;;;32.83;28.60;99419.16;4499419;31;33144;-84
2022/06/19 05:13:35;;;;;;;;;;;;;;;33.17;27.94;99417.47;4497740;31;35103;-85
2022/06/19 05:16:07;;;;;;;;;;;;;;;33.40;27.57;99414.84;4499053;31;35334;-84
2022/06/19 05:18:34;;;;;;;;;;;;;;;31.84;29.53;99421.87;4499487;31;34132;-83
2022/06/19 05:21:04;;;;;;;;;;;;;;;32.27;29.66;99431.38;4508271;31;33414;-84
2022/06/19 05:23:32;;;;;;;;;;;;;;;32.29;29.00;99421.41;4496675;31;34250;-85
2022/06/19 05:26:10;;;;;;;;;;;;;;;32.13;29.01;99427.03;4500006;31;34265;-85
2022/06/19 05:28:37;;;;;;;;;;;;;;;32.69;28.51;99417.53;4496387;31;34981;-85
2022/06/19 05:31:05;;;;;;;;;;;;;;;32.07;29.82;99422.09;4499131;31;33255;-86
2022/06/19 05:33:32;;;;;;;;;;;;;;;32.86;28.19;99420.75;4499245;31;34011;-84
2022/06/19 05:35:59;;;;;;;;;;;;;;;33.70;27.28;99417.00;4513898;31;34274;-84
2022/06/19 05:38:27;;;;;;;;;;;;;;;32.08;30.28;99427.34;4503102;31;34951;-89
2022/06/19 05:40:55;;;;;;;;;;;;;;;33.33;27.88;99419.84;4499474;31;33081;-85
2022/06/19 05:43:23;;;;;;;;;;;;;;;32.79;28.72;99425.72;4499722;31;34207;-84
2022/06/19 05:45:50;;;;;;;;;;;;;;;33.53;27.14;99421.03;4499070;31;34292;-84
2022/06/19 05:48:18;;;;;;;;;;;;;;;33.96;26.12;99422.13;4499133;31;34243;-84
2022/06/19 05:50:45;;;;;;;;;;;;;;;33.40;27.32;99418.38;4500302;31;33259;-84
2022/06/19 05:53:12;;;;;;;;;;;;;;;33.60;25.59;99422.25;4510940;31;34352;-84
2022/06/19 05:55:40;;;;;;;;;;;;;;;33.84;25.86;99419.44;4513010;31;34100;-84
2022/06/19 05:58:07;;;;;;;;;;;;;;;32.07;27.53;99430.16;4504725;31;35054;-84
2022/06/19 06:00:34;;;;;;;;;;;;;;;31.92;27.99;99432.09;4501399;31;33089;-83
2022/06/19 06:03:02;;;;;;;;;;;;;;;31.19;29.01;99430.00;4514854;31;34100;-84
2022/06/19 06:05:29;;;;;;;;;;;;;;;32.48;27.33;99432.53;4500972;31;34375;-86
2022/06/19 06:07:57;;;;;;;;;;;;;;;32.93;27.36;99425.59;4504814;31;34082;-84
2022/06/19 06:10:24;;;;;;;;;;;;;;;33.30;26.98;99424.59;4510389;31;34330;-85
2022/06/19 06:12:51;;;;;;;;;;;;;;;33.72;25.77;99416.84;4514321;31;34160;-83
2022/06/19 06:15:18;;;;;;;;;;;;;;;33.98;25.39;99422.84;4513486;31;34443;-84
2022/06/19 06:17:46;;;;;;;;;;;;;;;34.02;24.92;99419.84;4513280;31;33734;-84
2022/06/19 06:20:13;;;;;;;;;;;;;;;33.61;25.18;99420.41;4503454;31;33843;-83
2022/06/19 06:22:40;;;;;;;;;;;;;;;34.13;25.61;99424.34;4497168;31;34227;-84
2022/06/19 06:25:10;;;;;;;;;;;;;;;34.12;24.46;99422.63;4488843;31;34470;-84
2022/06/19 06:27:37;;;;;;;;;;;;;;;33.18;26.29;99432.62;4493852;31;33779;-84
2022/06/19 06:30:05;;;;;;;;;;;;;;;33.11;26.52;99430.50;4495033;31;33513;-83
2022/06/19 06:32:32;;;;;;;;;;;;;;;33.23;26.74;99436.81;4498595;31;35219;-82
2022/06/19 06:34:59;;;;;;;;;;;;;;;33.49;25.41;99432.09;4498651;31;34245;-84
2022/06/19 06:37:27;;;;;;;;;;;;;;;33.78;24.78;99430.69;4504641;31;34909;-82
2022/06/19 06:39:54;;;;;;;;;;;;;;;34.10;24.05;99436.22;4514019;31;34263;-83
2022/06/19 06:42:21;;;;;;;;;;;;;;;33.89;25.50;99433.38;4512792;31;34032;-83
2022/06/19 06:44:48;;;;;;;;;;;;;;;34.09;25.08;99430.94;4513653;31;34487;-81
2022/06/19 06:47:16;;;;;;;;;;;;;;;34.39;24.34;99431.16;4514141;31;34204;-84
2022/06/19 06:49:44;;;;;;;;;;;;;;;32.60;26.52;99442.34;4514023;31;33505;-84
2022/06/19 06:52:11;;;;;;;;;;;;;;;33.06;26.58;99438.94;4508356;31;34336;-84
2022/06/19 06:54:39;;;;;;;;;;;;;;;34.13;24.73;99440.47;4498214;31;34013;-83
2022/06/19 06:57:06;;;;;;;;;;;;;;;33.45;24.93;99439.53;4498095;31;33939;-86
2022/06/19 06:59:34;;;;;;;;;;;;;;;32.31;26.86;99441.78;4482366;31;33488;-82
2022/06/19 07:02:02;;;;;;;;;;;;;;;33.18;26.65;99435.31;4498114;31;35133;-84
2022/06/19 07:04:29;;;;;;;;;;;;;;;33.53;25.28;99436.31;4489253;31;33872;-84
2022/06/19 07:06:57;;;;;;;;;;;;;;;33.90;24.77;99440.47;4512514;31;34123;-84
2022/06/19 07:09:24;;;;;;;;;;;;;;;33.70;24.35;99430.44;4501757;31;34297;-84
2022/06/19 07:11:52;;;;;;;;;;;;;;;33.56;24.31;99446.78;4498250;31;34128;-83
2022/06/19 07:14:19;;;;;;;;;;;;;;;33.27;25.10;99441.81;4513625;31;35065;-81
2022/06/19 07:16:46;;;;;;;;;;;;;;;33.33;25.06;99437.78;4513603;31;34215;-84
2022/06/19 07:19:14;;;;;;;;;;;;;;;33.06;25.25;99428.19;4513155;31;32467;-83
2022/06/19 07:21:41;;;;;;;;;;;;;;;33.68;25.04;99418.97;4509666;31;34265;-87
2022/06/19 07:24:08;;;;;;;;;;;;;;;32.87;24.65;99428.69;4497670;31;33233;-86
2022/06/19 07:26:35;;;;;;;;;;;;;;;32.28;25.66;99436.66;4498616;31;35189;-83
2022/06/19 07:29:03;;;;;;;;;;;;;;;33.06;25.34;99441.62;4504030;31;33574;-83
2022/06/19 07:31:34;;;;;;;;;;;;;;;33.32;25.25;99434.25;4509483;31;34879;-82
2022/06/19 07:34:01;;;;;;;;;;;;;;;32.56;25.90;99431.97;4515822;31;34234;-83
2022/06/19 07:36:29;;;;;;;;;;;;;;;32.89;25.94;99432.13;4515891;31;34091;-84
2022/06/19 07:38:56;;;;;;;;;;;;;;;32.41;26.84;99436.63;4515871;31;33736;-84
2022/06/19 07:41:23;;;;;;;;;;;;;;;33.22;25.27;99429.69;4515981;31;35134;-82
2022/06/19 07:43:51;;;;;;;;;;;;;;;33.39;25.30;99424.75;4515891;31;34288;-83
2022/06/19 07:46:19;;;;;;;;;;;;;;;33.13;25.66;99432.13;4514304;31;34246;-82
2022/06/19 07:51:32;;;;;;;;;;;;;;;33.40;25.62;99420.22;4484101;32;35002;-82
2022/06/19 07:54:00;;;;;;;;;;;;;;;32.48;25.55;99424.47;4484143;32;33886;-83
2022/06/19 07:56:28;;;;;;;;;;;;;;;32.97;25.01;99418.16;4496439;31;34232;-81
2022/06/19 07:58:55;;;;;;;;;;;;;;;32.92;25.13;99421.16;4509815;31;34186;-83
2022/06/19 08:01:22;;;;;;;;;;;;;;;32.89;25.13;99423.22;4505781;31;33716;-82
2022/06/19 08:03:56;;;;;;;;;;;;;;;32.64;25.16;99419.69;4499407;31;35035;-82
2022/06/19 08:06:25;;;;;;;;;;;;;;;32.36;25.52;99420.84;4499601;31;34797;-84
2022/06/19 08:08:52;;;;;;;;;;;;;;;32.25;24.57;99411.88;4499921;31;33706;-80
2022/06/19 08:11:19;;;;;;;;;;;;;;;32.84;24.81;99402.06;4499687;31;33904;-82
2022/06/19 08:13:47;;;;;;;;;;;;;;;32.23;25.76;99398.56;4502345;31;34162;-83
2022/06/19 08:16:14;;;;;;;;;;;;;;;33.39;24.94;99402.41;4507117;31;34972;-83
2022/06/19 08:18:41;;;;;;;;;;;;;;;32.64;25.97;99400.03;4499438;31;34172;-82
2022/06/19 08:21:09;;;;;;;;;;;;;;;33.34;24.97;99393.84;4499493;31;35075;-83
2022/06/19 08:23:36;;;;;;;;;;;;;;;33.07;24.12;99383.37;4500002;31;35255;-82
2022/06/19 08:26:03;;;;;;;;;;;;;;;33.39;23.68;99379.06;4499606;31;35758;-85
2022/06/19 08:28:38;;;;;;;;;;;;;;;33.96;23.24;99381.78;4499784;31;34229;-83
2022/06/19 08:31:06;;;;;;;;;;;;;;;33.40;23.66;99380.75;4499734;31;34327;-81
2022/06/19 08:33:33;;;;;;;;;;;;;;;32.93;24.27;99379.94;4499525;31;35111;-83
2022/06/19 08:36:02;;;;;;;;;;;;;;;33.07;24.61;99381.56;4498505;31;34194;-82
2022/06/19 08:38:31;;;;;;;;;;;;;;;33.25;23.16;99383.78;4498353;31;33246;-81
2022/06/19 08:41:16;;;;;;;;;;;;;;;33.61;23.10;99375.56;4482021;31;33676;-84
2022/06/19 08:43:57;;;;;;;;;;;;;;;32.62;24.49;99381.38;4483783;32;34227;-84
2022/06/19 08:46:24;;;;;;;;;;;;;;;33.31;23.38;99375.25;4482135;32;33672;-83
2022/06/19 08:49:12;;;;;;;;;;;;;;;34.20;23.49;99370.88;4491928;31;34125;-83
2022/06/19 08:51:42;;;;;;;;;;;;;;;34.25;22.48;99380.31;4488419;31;34886;-83
2022/06/19 08:54:18;;;;;;;;;;;;;;;33.25;23.31;99384.63;4499485;31;35430;-82
2022/06/19 08:56:58;;;;;;;;;;;;;;;32.78;23.33;99386.44;4499510;31;34094;-83
2022/06/19 08:59:25;;;;;;;;;;;;;;;32.72;24.32;99381.53;4498164;31;33453;-82
2022/06/19 09:02:04;;;;;;;;;;;;;;;33.47;23.00;99374.94;4499308;31;35040;-82
2022/06/19 09:07:25;;;;;;;;;;;;;;;33.65;23.60;99376.19;4499314;31;34056;-82
2022/06/19 09:09:53;;;;;;;;;;;;;;;33.29;23.68;99388.81;4499440;31;32970;-82
2022/06/19 09:12:46;;;;;;;;;;;;;;;33.22;24.03;99381.34;4501799;31;34288;-84
2022/06/19 09:15:18;;;;;;;;;;;;;;;33.30;23.97;99376.22;4490853;31;35284;-83
2022/06/19 09:17:48;;;;;;;;;;;;;;;32.66;24.57;99371.25;4515240;31;33830;-82
2022/06/19 09:20:18;;;;;;;;;;;;;;;33.21;24.28;99374.25;4513279;31;33603;-82
2022/06/19 09:22:51;;;;;;;;;;;;;;;32.49;24.04;99371.66;4515334;31;35198;-83
2022/06/19 09:25:20;;;;;;;;;;;;;;;33.17;23.60;99370.94;4513869;31;33838;-82
2022/06/19 09:27:53;;;;;;;;;;;;;;;33.42;24.13;99360.00;4515341;31;34414;-83
2022/06/19 09:30:25;;;;;;;;;;;;;;;32.75;22.85;99353.59;4515121;31;33528;-82
2022/06/19 09:32:59;;;;;;;;;;;;;;;32.68;23.45;99359.41;4514904;31;34057;-84
2022/06/19 09:35:37;;;;;;;;;;;;;;;33.48;24.09;99349.78;4482896;31;32792;-82
2022/06/19 09:38:06;;;;;;;;;;;;;;;33.46;22.38;99344.53;4483302;32;34046;-84
2022/06/19 09:40:35;;;;;;;;;;;;;;;33.38;22.71;99342.41;4483337;32;33093;-85
2022/06/19 09:43:20;;;;;;;;;;;;;;;33.57;22.77;99347.22;4481906;32;33860;-84
2022/06/19 09:45:49;;;;;;;;;;;;;;;33.71;23.09;99354.16;4481768;32;34051;-83
2022/06/19 09:48:28;;;;;;;;;;;;;;;33.51;22.46;99352.22;4486940;31;33887;-83
2022/06/19 09:50:59;;;;;;;;;;;;;;;34.08;22.74;99340.47;4513683;31;33323;-83
2022/06/19 09:53:44;;;;;;;;;;;;;;;34.50;22.25;99348.69;4513691;31;35029;-81
2022/06/19 09:56:33;;;;;;;;;;;;;;;34.42;21.29;99349.28;4505001;31;34070;-83
2022/06/19 09:59:04;;;;;;;;;;;;;;;34.65;21.52;99336.63;4513825;31;35167;-82
2022/06/19 10:01:31;;;;;;;;;;;;;;;33.11;21.83;99333.81;4513782;31;33400;-84
2022/06/19 10:04:02;;;;;;;;;;;;;;;34.18;21.81;99327.97;4513721;31;34117;-82
2022/06/19 10:06:34;;;;;;;;;;;;;;;33.93;21.23;99325.53;4511087;31;34416;-84
2022/06/19 10:09:04;;;;;;;;;;;;;;;33.37;21.62;99321.88;4513586;31;34979;-83
2022/06/19 10:11:32;;;;;;;;;;;;;;;33.87;23.00;99333.16;4514876;31;32771;-84
2022/06/19 10:14:10;;;;;;;;;;;;;;;34.42;20.31;99325.06;4513715;31;34833;-84
2022/06/19 10:16:48;;;;;;;;;;;;;;;34.18;21.93;99324.44;4513540;31;34223;-83
2022/06/19 10:19:19;;;;;;;;;;;;;;;34.16;21.33;99323.69;4514740;31;33946;-82
2022/06/19 10:22:13;;;;;;;;;;;;;;;33.05;22.11;99308.28;4514495;31;34629;-82
2022/06/19 10:24:40;;;;;;;;;;;;;;;33.90;21.88;99308.66;4513383;31;34328;-84
2022/06/19 10:27:20;;;;;;;;;;;;;;;34.18;21.34;99311.81;4514493;31;34343;-83
2022/06/19 10:29:56;;;;;;;;;;;;;;;33.96;21.47;99306.47;4491055;31;34335;-83
2022/06/19 10:32:23;;;;;;;;;;;;;;;33.75;22.12;99304.53;4496129;31;32942;-85
2022/06/19 10:35:00;;;;;;;;;;;;;;;34.34;21.26;99297.94;4498443;31;34857;-83
2022/06/19 10:37:41;;;;;;;;;;;;;;;34.19;21.46;99305.44;4484250;31;35127;-82
2022/06/19 10:40:14;;;;;;;;;;;;;;;34.31;21.46;99287.44;4487969;31;34963;-81
2022/06/19 10:42:45;;;;;;;;;;;;;;;34.36;20.90;99285.19;4505939;31;33446;-82
2022/06/19 10:45:16;;;;;;;;;;;;;;;34.47;21.93;99287.00;4498380;31;34192;-81
2022/06/19 10:47:58;;;;;;;;;;;;;;;34.33;20.90;99280.94;4500741;31;34281;-84
2022/06/19 10:50:44;;;;;;;;;;;;;;;34.61;20.75;99278.63;4514650;31;33837;-84
2022/06/19 10:53:20;;;;;;;;;;;;;;;34.54;20.37;99272.06;4514400;31;33597;-84
2022/06/19 10:55:57;;;;;;;;;;;;;;;34.75;21.31;99274.78;4514114;31;34123;-84
2022/06/19 10:58:25;;;;;;;;;;;;;;;34.61;20.50;99275.94;4499784;31;34171;-81
2022/06/19 11:01:03;;;;;;;;;;;;;;;34.78;19.67;99266.44;4497280;31;34339;-84
2022/06/19 11:06:58;;;;;;;;;;;;;;;34.57;20.78;99261.03;4516095;31;33849;-84
2022/06/19 11:09:30;;;;;;;;;;;;;;;34.43;20.62;99264.00;4436953;32;34498;-83
2022/06/19 11:12:04;;;;;;;;;;;;;;;34.79;20.28;99255.53;4476240;31;34134;-81
2022/06/19 11:14:34;;;;;;;;;;;;;;;34.86;19.88;99254.00;4483141;32;33561;-84
2022/06/19 11:17:05;;;;;;;;;;;;;;;33.17;21.34;99271.53;4483003;32;34995;-84
2022/06/19 11:19:41;;;;;;;;;;;;;;;34.38;21.98;99261.72;4492120;31;33907;-82
2022/06/19 11:22:19;;;;;;;;;;;;;;;35.16;19.94;99260.44;4491230;31;34256;-82
2022/06/19 11:24:47;;;;;;;;;;;;;;;35.23;20.75;99263.41;4484640;32;33597;-82
2022/06/19 11:27:19;;;;;;;;;;;;;;;34.54;20.18;99258.59;4484560;32;34959;-82
2022/06/19 11:29:48;;;;;;;;;;;;;;;34.62;20.08;99264.19;4482947;31;33746;-83
2022/06/19 11:32:18;;;;;;;;;;;;;;;34.70;20.31;99242.84;4500108;31;34918;-82
2022/06/19 11:34:57;;;;;;;;;;;;;;;34.45;19.93;99243.22;4506036;31;33330;-83
2022/06/19 11:37:29;;;;;;;;;;;;;;;34.96;19.57;99239.72;4498867;31;34306;-82
2022/06/19 11:39:59;;;;;;;;;;;;;;;34.39;19.34;99226.56;4506619;31;35216;-83
2022/06/19 11:42:28;;;;;;;;;;;;;;;34.13;22.00;99236.00;4510461;31;34139;-82
2022/06/19 11:45:04;;;;;;;;;;;;;;;34.80;20.03;99235.66;4500143;31;33466;-82
2022/06/19 11:47:39;;;;;;;;;;;;;;;34.47;19.72;99239.37;4498654;31;33984;-83
2022/06/19 11:50:18;;;;;;;;;;;;;;;34.06;20.08;99234.81;4498524;31;34501;-83
2022/06/19 11:52:52;;;;;;;;;;;;;;;34.79;19.59;99228.59;4499908;31;35133;-81
2022/06/19 11:55:21;;;;;;;;;;;;;;;34.11;19.66;99232.59;4499986;31;33578;-82
2022/06/19 11:57:50;;;;;;;;;;;;;;;34.81;19.82;99228.44;4498852;31;34099;-81
2022/06/19 12:00:25;;;;;;;;;;;;;;;34.85;20.22;99232.56;4505653;31;33839;-83
2022/06/19 12:02:54;;;;;;;;;;;;;;;34.77;20.07;99227.84;4498534;31;33929;-81
2022/06/19 12:05:38;;;;;;;;;;;;;;;34.53;20.70;99235.34;4499231;31;34120;-81
2022/06/19 12:08:07;;;;;;;;;;;;;;;34.25;20.57;99221.53;4502672;31;34386;-82
2022/06/19 12:10:35;;;;;;;;;;;;;;;34.98;20.71;99226.97;4499571;31;34193;-82
2022/06/19 12:13:03;;;;;;;;;;;;;;;35.27;19.13;99205.56;4507695;31;34926;-83
2022/06/19 12:15:31;;;;;;;;;;;;;;;35.42;19.28;99214.13;4498985;31;33048;-81
2022/06/19 12:18:00;;;;;;;;;;;;;;;35.27;20.45;99216.34;4498512;31;34392;-80
2022/06/19 12:20:31;;;;;;;;;;;;;;;35.00;19.19;99207.00;4499632;31;34262;-81
2022/06/19 12:23:03;;;;;;;;;;;;;;;35.02;19.02;99209.59;4499827;31;35017;-81
2022/06/19 12:25:31;;;;;;;;;;;;;;;35.24;19.24;99201.31;4500235;31;33432;-82
2022/06/19 12:28:10;;;;;;;;;;;;;;;35.63;18.97;99193.34;4499812;31;34101;-82
2022/06/19 12:30:46;;;;;;;;;;;;;;;35.40;19.76;99199.94;4499550;31;33861;-82
2022/06/19 12:33:19;;;;;;;;;;;;;;;35.71;18.98;99193.50;4504894;31;34837;-81
2022/06/19 12:35:47;;;;;;;;;;;;;;;35.37;18.93;99194.81;4513700;31;34002;-81
2022/06/19 12:38:16;;;;;;;;;;;;;;;35.57;19.09;99194.78;4514338;31;35517;-83
2022/06/19 12:41:02;;;;;;;;;;;;;;;35.65;18.11;99190.50;4513178;31;34417;-83
2022/06/19 12:43:30;;;;;;;;;;;;;;;35.70;18.70;99172.06;4507401;31;34568;-82
2022/06/19 12:45:58;;;;;;;;;;;;;;;35.34;18.89;99185.16;4515875;31;33383;-83
2022/06/19 12:48:45;;;;;;;;;;;;;;;35.25;18.12;99178.75;4515407;31;33677;-83
2022/06/19 12:51:14;;;;;;;;;;;;;;;35.47;18.32;99168.75;4507762;31;33925;-82
2022/06/19 12:53:48;;;;;;;;;;;;;;;34.55;18.56;99172.34;4492187;31;34986;-83
2022/06/19 12:56:18;;;;;;;;;;;;;;;34.62;19.11;99175.31;4499570;31;33537;-83
2022/06/19 12:58:58;;;;;;;;;;;;;;;34.99;19.65;99175.69;4499148;31;35111;-83
2022/06/19 13:01:34;;;;;;;;;;;;;;;35.15;18.65;99167.09;4499101;31;34539;-84
2022/06/19 13:04:02;;;;;;;;;;;;;;;35.42;18.69;99166.47;4499534;31;33998;-84
2022/06/19 13:06:37;;;;;;;;;;;;;;;35.67;17.79;99158.88;4503404;31;33397;-83
2022/06/19 13:09:23;;;;;;;;;;;;;;;35.97;17.67;99160.59;4510040;31;33813;-81
2022/06/19 13:11:53;;;;;;;;;;;;;;;35.98;18.16;99156.88;4499430;31;34334;-86
2022/06/19 13:14:23;;;;;;;;;;;;;;;35.52;18.07;99163.81;4499448;31;34356;-82